sensor_id;sensor_type;location;lat;lon;timestamp;pressure;altitude;pressure_sealevel;temperature;humidity
53647;BME280;39550;52.230;5.194;2023-03-01T00:02:16;103145.09;;;3.63;76.26
53647;BME280;39550;52.230;5.194;2023-03-01T00:04:41;103148.41;;;3.62;76.24
53647;BME280;39550;52.230;5.194;2023-03-01T00:07:06;103149.19;;;3.61;76.85
53647;BME280;39550;52.230;5.194;2023-03-01T00:09:32;103146.75;;;3.63;76.20
53647;BME280;39550;52.230;5.194;2023-03-01T00:11:57;103134.00;;;3.51;76.43
53647;BME280;39550;52.230;5.194;2023-03-01T00:14:22;103147.44;;;3.60;76.57
53647;BME280;39550;52.230;5.194;2023-03-01T00:16:48;103148.31;;;3.61;76.39
53647;BME280;39550;52.230;5.194;2023-03-01T00:19:16;103143.09;;;3.59;76.23
53647;BME280;39550;52.230;5.194;2023-03-01T00:21:41;103143.88;;;3.58;76.22
53647;BME280;39550;52.230;5.194;2023-03-01T00:24:07;103138.56;;;3.55;76.58
53647;BME280;39550;52.230;5.194;2023-03-01T00:26:33;103144.63;;;3.57;76.65
53647;BME280;39550;52.230;5.194;2023-03-01T00:28:59;103137.00;;;3.57;76.26
53647;BME280;39550;52.230;5.194;2023-03-01T00:31:27;103138.56;;;3.55;76.37
53647;BME280;39550;52.230;5.194;2023-03-01T00:33:57;103135.25;;;3.56;76.25
53647;BME280;39550;52.230;5.194;2023-03-01T00:36:23;103133.47;;;3.55;76.80
53647;BME280;39550;52.230;5.194;2023-03-01T00:38:49;103129.88;;;3.53;76.58
53647;BME280;39550;52.230;5.194;2023-03-01T00:41:15;103128.13;;;3.52;76.49
53647;BME280;39550;52.230;5.194;2023-03-01T00:43:42;103118.81;;;3.52;76.11
53647;BME280;39550;52.230;5.194;2023-03-01T00:46:20;103128.91;;;3.51;76.58
53647;BME280;39550;52.230;5.194;2023-03-01T00:48:46;103124.56;;;3.50;76.38
53647;BME280;39550;52.230;5.194;2023-03-01T00:51:17;103123.69;;;3.49;76.31
53647;BME280;39550;52.230;5.194;2023-03-01T00:53:43;103126.13;;;3.48;76.87
53647;BME280;39550;52.230;5.194;2023-03-01T00:56:11;103126.13;;;3.48;76.58
53647;BME280;39550;52.230;5.194;2023-03-01T00:58:37;103121.03;;;3.48;76.48
53647;BME280;39550;52.230;5.194;2023-03-01T01:01:11;103122.56;;;3.46;76.31
53647;BME280;39550;52.230;5.194;2023-03-01T01:03:46;103117.47;;;3.46;76.38
53647;BME280;39550;52.230;5.194;2023-03-01T01:06:20;103126.78;;;3.45;76.16
53647;BME280;39550;52.230;5.194;2023-03-01T01:08:46;103121.59;;;3.44;76.39
53647;BME280;39550;52.230;5.194;2023-03-01T01:11:12;103112.16;;;3.43;76.33
53647;BME280;39550;52.230;5.194;2023-03-01T01:13:38;103112.16;;;3.43;75.97
53647;BME280;39550;52.230;5.194;2023-03-01T01:16:05;103108.84;;;3.44;76.26
53647;BME280;39550;52.230;5.194;2023-03-01T01:18:30;103107.06;;;3.43;76.30
53647;BME280;39550;52.230;5.194;2023-03-01T01:20:56;103103.50;;;3.40;76.39
53647;BME280;39550;52.230;5.194;2023-03-01T01:23:21;103093.31;;;3.40;76.34
53647;BME280;39550;52.230;5.194;2023-03-01T01:25:47;103099.19;;;3.39;76.58
53647;BME280;39550;52.230;5.194;2023-03-01T01:28:12;103094.88;;;3.38;76.12
53647;BME280;39550;52.230;5.194;2023-03-01T01:30:37;103093.09;;;3.37;76.15
53647;BME280;39550;52.230;5.194;2023-03-01T01:33:03;103087.97;;;3.37;76.29
53647;BME280;39550;52.230;5.194;2023-03-01T01:35:28;103086.19;;;3.36;76.05
53647;BME280;39550;52.230;5.194;2023-03-01T01:37:53;103083.53;;;3.35;76.15
53647;BME280;39550;52.230;5.194;2023-03-01T01:40:19;103085.31;;;3.36;76.32
53647;BME280;39550;52.230;5.194;2023-03-01T01:42:44;103087.75;;;3.34;75.97
53647;BME280;39550;52.230;5.194;2023-03-01T01:45:32;103085.09;;;3.33;76.03
53647;BME280;39550;52.230;5.194;2023-03-01T01:48:04;103080.88;;;3.33;76.28
53647;BME280;39550;52.230;5.194;2023-03-01T01:50:33;103077.34;;;3.31;76.00
53647;BME280;39550;52.230;5.194;2023-03-01T01:53:10;103074.00;;;3.32;76.18
53647;BME280;39550;52.230;5.194;2023-03-01T01:55:41;103077.34;;;3.31;76.14
53647;BME280;39550;52.230;5.194;2023-03-01T01:58:09;103074.69;;;3.30;76.60
53647;BME280;39550;52.230;5.194;2023-03-01T02:00:36;103072.91;;;3.29;76.39
53647;BME280;39550;52.230;5.194;2023-03-01T02:03:08;103076.34;;;3.29;75.90
53647;BME280;39550;52.230;5.194;2023-03-01T02:08:13;103070.25;;;3.27;75.58
53647;BME280;39550;52.230;5.194;2023-03-01T02:10:40;103066.69;;;3.25;76.14
53647;BME280;39550;52.230;5.194;2023-03-01T02:13:06;103070.16;;;3.26;76.04
53647;BME280;39550;52.230;5.194;2023-03-01T02:15:33;103060.72;;;3.24;76.26
53647;BME280;39550;52.230;5.194;2023-03-01T02:17:59;103061.38;;;3.22;76.23
53647;BME280;39550;52.230;5.194;2023-03-01T02:23:14;103066.47;;;3.22;75.98
53647;BME280;39550;52.230;5.194;2023-03-01T02:26:06;103063.81;;;3.20;76.07
53647;BME280;39550;52.230;5.194;2023-03-01T02:28:38;103057.84;;;3.20;75.86
53647;BME280;39550;52.230;5.194;2023-03-01T02:31:09;103061.16;;;3.19;75.78
53647;BME280;39550;52.230;5.194;2023-03-01T02:33:54;103059.38;;;3.18;76.32
53647;BME280;39550;52.230;5.194;2023-03-01T02:36:24;103061.16;;;3.19;75.75
53647;BME280;39550;52.230;5.194;2023-03-01T02:38:53;103057.59;;;3.17;75.66
53647;BME280;39550;52.230;5.194;2023-03-01T02:41:21;103050.75;;;3.16;75.82
53647;BME280;39550;52.230;5.194;2023-03-01T02:43:47;103044.75;;;3.15;76.09
53647;BME280;39550;52.230;5.194;2023-03-01T02:46:19;103048.97;;;3.15;75.63
53647;BME280;39550;52.230;5.194;2023-03-01T02:48:54;103040.31;;;3.13;75.94
53647;BME280;39550;52.230;5.194;2023-03-01T02:56:35;103030.66;;;3.09;76.00
53647;BME280;39550;52.230;5.194;2023-03-01T02:59:01;103045.19;;;3.10;76.07
53647;BME280;39550;52.230;5.194;2023-03-01T03:01:28;103037.53;;;3.10;75.57
53647;BME280;39550;52.230;5.194;2023-03-01T03:04:06;103035.66;;;3.07;75.74
53647;BME280;39550;52.230;5.194;2023-03-01T03:06:33;103034.00;;;3.08;75.52
53647;BME280;39550;52.230;5.194;2023-03-01T03:08:58;103028.81;;;3.06;75.79
53647;BME280;39550;52.230;5.194;2023-03-01T03:11:24;103027.91;;;3.05;75.93
53647;BME280;39550;52.230;5.194;2023-03-01T03:13:50;103031.22;;;3.04;75.48
53647;BME280;39550;52.230;5.194;2023-03-01T03:16:17;103026.13;;;3.04;75.89
53647;BME280;39550;52.230;5.194;2023-03-01T03:18:42;103019.03;;;3.00;75.68
53647;BME280;39550;52.230;5.194;2023-03-01T03:21:09;103024.38;;;3.03;76.16
53647;BME280;39550;52.230;5.194;2023-03-01T03:23:35;103023.47;;;3.03;75.92
53647;BME280;39550;52.230;5.194;2023-03-01T03:26:01;103012.19;;;2.99;75.81
53647;BME280;39550;52.230;5.194;2023-03-01T03:28:32;103013.94;;;3.00;75.37
53647;BME280;39550;52.230;5.194;2023-03-01T03:30:58;103013.94;;;3.00;75.71
53647;BME280;39550;52.230;5.194;2023-03-01T03:33:31;103012.19;;;2.99;75.72
53647;BME280;39550;52.230;5.194;2023-03-01T03:35:56;103005.31;;;2.98;75.77
53647;BME280;39550;52.230;5.194;2023-03-01T03:38:22;102995.13;;;2.98;75.73
53647;BME280;39550;52.230;5.194;2023-03-01T03:40:55;102995.88;;;2.97;75.81
53647;BME280;39550;52.230;5.194;2023-03-01T03:43:26;103006.84;;;2.96;75.13
53647;BME280;39550;52.230;5.194;2023-03-01T03:45:51;103001.75;;;2.96;75.63
53647;BME280;39550;52.230;5.194;2023-03-01T03:48:17;103005.09;;;2.95;75.70
53647;BME280;39550;52.230;5.194;2023-03-01T03:50:51;103006.72;;;2.95;75.46
53647;BME280;39550;52.230;5.194;2023-03-01T03:53:18;102999.75;;;2.92;75.12
53647;BME280;39550;52.230;5.194;2023-03-01T03:55:43;102996.44;;;2.93;75.67
53647;BME280;39550;52.230;5.194;2023-03-01T03:58:10;102996.22;;;2.90;75.44
53647;BME280;39550;52.230;5.194;2023-03-01T04:00:44;102998.75;;;2.90;75.45
53647;BME280;39550;52.230;5.194;2023-03-01T04:03:11;103003.09;;;2.91;75.72
53647;BME280;39550;52.230;5.194;2023-03-01T04:05:38;102998.00;;;2.91;75.50
53647;BME280;39550;52.230;5.194;2023-03-01T04:08:04;102992.91;;;2.91;75.26
53647;BME280;39550;52.230;5.194;2023-03-01T04:10:41;103000.44;;;2.89;75.40
53647;BME280;39550;52.230;5.194;2023-03-01T04:13:10;102999.50;;;2.89;75.09
53647;BME280;39550;52.230;5.194;2023-03-01T04:15:36;103002.81;;;2.88;75.45
53647;BME280;39550;52.230;5.194;2023-03-01T04:18:01;103002.72;;;2.86;75.38
53647;BME280;39550;52.230;5.194;2023-03-01T04:20:30;103006.16;;;2.87;75.38
53647;BME280;39550;52.230;5.194;2023-03-01T04:23:20;102995.75;;;2.84;75.38
53647;BME280;39550;52.230;5.194;2023-03-01T04:28:24;102997.41;;;2.83;75.33
53647;BME280;39550;52.230;5.194;2023-03-01T04:30:52;102998.06;;;2.81;75.22
53647;BME280;39550;52.230;5.194;2023-03-01T04:33:18;102996.41;;;2.81;75.50
53647;BME280;39550;52.230;5.194;2023-03-01T04:35:44;102995.50;;;2.81;74.85
53647;BME280;39550;52.230;5.194;2023-03-01T04:38:09;102995.50;;;2.81;75.27
53647;BME280;39550;52.230;5.194;2023-03-01T04:40:35;102988.66;;;2.80;74.98
53647;BME280;39550;52.230;5.194;2023-03-01T04:43:01;102987.66;;;2.78;75.19
53647;BME280;39550;52.230;5.194;2023-03-01T04:45:27;102991.97;;;2.79;75.11
53647;BME280;39550;52.230;5.194;2023-03-01T04:47:53;102986.66;;;2.76;74.94
53647;BME280;39550;52.230;5.194;2023-03-01T04:50:19;102989.22;;;2.76;75.41
53647;BME280;39550;52.230;5.194;2023-03-01T04:52:49;102985.88;;;2.77;75.10
53647;BME280;39550;52.230;5.194;2023-03-01T04:55:14;102993.28;;;2.73;74.90
53647;BME280;39550;52.230;5.194;2023-03-01T04:57:40;102989.06;;;2.74;74.91
53647;BME280;39550;52.230;5.194;2023-03-01T05:00:08;102983.97;;;2.74;75.21
53647;BME280;39550;52.230;5.194;2023-03-01T05:02:54;102977.91;;;2.72;74.97
53647;BME280;39550;52.230;5.194;2023-03-01T05:05:22;102974.47;;;2.71;75.04
53647;BME280;39550;52.230;5.194;2023-03-01T05:07:51;102974.47;;;2.71;75.00
53647;BME280;39550;52.230;5.194;2023-03-01T05:10:17;102971.78;;;2.70;75.00
53647;BME280;39550;52.230;5.194;2023-03-01T05:12:42;102964.94;;;2.69;74.84
53647;BME280;39550;52.230;5.194;2023-03-01T05:15:07;102964.94;;;2.69;75.00
53647;BME280;39550;52.230;5.194;2023-03-01T05:17:34;102963.81;;;2.65;75.01
53647;BME280;39550;52.230;5.194;2023-03-01T05:19:59;102956.72;;;2.61;74.99
53647;BME280;39550;52.230;5.194;2023-03-01T05:22:25;102957.06;;;2.66;74.72
53647;BME280;39550;52.230;5.194;2023-03-01T05:24:51;102952.78;;;2.65;74.86
53647;BME280;39550;52.230;5.194;2023-03-01T05:27:16;102951.88;;;2.64;74.63
53647;BME280;39550;52.230;5.194;2023-03-01T05:29:42;102943.25;;;2.62;75.04
53647;BME280;39550;52.230;5.194;2023-03-01T05:32:07;102945.03;;;2.63;74.80
53647;BME280;39550;52.230;5.194;2023-03-01T05:34:35;102936.38;;;2.61;74.70
53647;BME280;39550;52.230;5.194;2023-03-01T05:37:01;102935.59;;;2.62;74.95
53647;BME280;39550;52.230;5.194;2023-03-01T05:39:28;102936.25;;;2.60;74.89
53647;BME280;39550;52.230;5.194;2023-03-01T05:41:58;102932.84;;;2.59;74.68
53647;BME280;39550;52.230;5.194;2023-03-01T05:47:47;102924.19;;;2.57;74.79
53647;BME280;39550;52.230;5.194;2023-03-01T05:50:23;102917.31;;;2.56;74.85
53647;BME280;39550;52.230;5.194;2023-03-01T05:53:14;102919.88;;;2.56;75.01
53647;BME280;39550;52.230;5.194;2023-03-01T05:55:40;102918.88;;;2.54;74.72
53647;BME280;39550;52.230;5.194;2023-03-01T05:58:11;102911.91;;;2.51;74.63
53647;BME280;39550;52.230;5.194;2023-03-01T06:00:36;102910.00;;;2.49;74.80
53647;BME280;39550;52.230;5.194;2023-03-01T06:03:02;102914.44;;;2.51;74.71
53647;BME280;39550;52.230;5.194;2023-03-01T06:05:28;102922.06;;;2.51;74.66
53647;BME280;39550;52.230;5.194;2023-03-01T06:07:54;102915.09;;;2.49;74.87
53647;BME280;39550;52.230;5.194;2023-03-01T06:10:21;102922.84;;;2.50;74.60
53647;BME280;39550;52.230;5.194;2023-03-01T06:12:47;102916.88;;;2.50;74.98
53647;BME280;39550;52.230;5.194;2023-03-01T06:15:14;102911.78;;;2.50;74.70
53647;BME280;39550;52.230;5.194;2023-03-01T06:17:41;102909.78;;;2.46;74.73
53647;BME280;39550;52.230;5.194;2023-03-01T06:20:11;102909.03;;;2.47;74.43
53647;BME280;39550;52.230;5.194;2023-03-01T06:22:37;102924.41;;;2.48;74.74
53647;BME280;39550;52.230;5.194;2023-03-01T06:25:03;102915.09;;;2.49;74.63
53647;BME280;39550;52.230;5.194;2023-03-01T06:27:29;102920.94;;;2.48;74.45
53647;BME280;39550;52.230;5.194;2023-03-01T06:29:54;102919.97;;;2.46;74.16
53647;BME280;39550;52.230;5.194;2023-03-01T06:32:20;102920.72;;;2.45;74.46
53647;BME280;39550;52.230;5.194;2023-03-01T06:34:45;102921.63;;;2.45;74.41
53647;BME280;39550;52.230;5.194;2023-03-01T06:37:11;102927.50;;;2.44;74.29
53647;BME280;39550;52.230;5.194;2023-03-01T06:39:36;102919.53;;;2.40;74.49
53647;BME280;39550;52.230;5.194;2023-03-01T06:42:02;102923.06;;;2.42;74.45
53647;BME280;39550;52.230;5.194;2023-03-01T06:44:27;102923.06;;;2.42;74.32
53647;BME280;39550;52.230;5.194;2023-03-01T06:46:53;102923.81;;;2.41;74.56
53647;BME280;39550;52.230;5.194;2023-03-01T06:49:19;102926.25;;;2.39;74.51
53647;BME280;39550;52.230;5.194;2023-03-01T06:51:45;102924.63;;;2.40;74.51
53647;BME280;39550;52.230;5.194;2023-03-01T06:54:11;102926.25;;;2.39;74.21
53647;BME280;39550;52.230;5.194;2023-03-01T06:56:36;102928.91;;;2.41;74.47
53647;BME280;39550;52.230;5.194;2023-03-01T06:59:02;102923.81;;;2.41;74.34
53647;BME280;39550;52.230;5.194;2023-03-01T07:01:28;102925.47;;;2.40;74.38
53647;BME280;39550;52.230;5.194;2023-03-01T07:03:54;102927.16;;;2.40;73.99
53647;BME280;39550;52.230;5.194;2023-03-01T07:06:19;102932.09;;;2.38;74.51
53647;BME280;39550;52.230;5.194;2023-03-01T07:08:45;102933.00;;;2.38;74.40
53647;BME280;39550;52.230;5.194;2023-03-01T07:11:10;102929.44;;;2.36;74.42
53647;BME280;39550;52.230;5.194;2023-03-01T07:13:35;102932.09;;;2.38;74.18
53647;BME280;39550;52.230;5.194;2023-03-01T07:16:01;102932.09;;;2.38;74.18
53647;BME280;39550;52.230;5.194;2023-03-01T07:18:26;102931.22;;;2.37;74.29
53647;BME280;39550;52.230;5.194;2023-03-01T07:20:51;102934.53;;;2.36;74.28
53647;BME280;39550;52.230;5.194;2023-03-01T07:23:18;102934.53;;;2.36;74.32
53647;BME280;39550;52.230;5.194;2023-03-01T07:25:43;102943.94;;;2.37;74.09
53647;BME280;39550;52.230;5.194;2023-03-01T07:28:09;102940.28;;;2.34;74.30
53647;BME280;39550;52.230;5.194;2023-03-01T07:30:34;102942.16;;;2.36;74.03
53647;BME280;39550;52.230;5.194;2023-03-01T07:33:00;102937.34;;;2.40;74.17
53647;BME280;39550;52.230;5.194;2023-03-01T07:35:26;102944.06;;;2.39;74.39
53647;BME280;39550;52.230;5.194;2023-03-01T07:37:52;102944.06;;;2.39;74.00
53647;BME280;39550;52.230;5.194;2023-03-01T07:40:18;102937.34;;;2.40;74.04
53647;BME280;39550;52.230;5.194;2023-03-01T07:42:44;102941.63;;;2.41;73.82
53647;BME280;39550;52.230;5.194;2023-03-01T07:45:09;102936.53;;;2.41;74.19
53647;BME280;39550;52.230;5.194;2023-03-01T07:47:35;102937.19;;;2.38;74.22
53647;BME280;39550;52.230;5.194;2023-03-01T07:50:01;102933.00;;;2.38;73.95
53647;BME280;39550;52.230;5.194;2023-03-01T07:52:28;102948.28;;;2.38;74.18
53647;BME280;39550;52.230;5.194;2023-03-01T07:54:53;102941.63;;;2.41;74.04
53647;BME280;39550;52.230;5.194;2023-03-01T07:57:19;102939.88;;;2.40;73.98
53647;BME280;39550;52.230;5.194;2023-03-01T07:59:44;102945.84;;;2.40;74.01
53647;BME280;39550;52.230;5.194;2023-03-01T08:02:10;102945.19;;;2.43;74.04
53647;BME280;39550;52.230;5.194;2023-03-01T08:07:05;102941.75;;;2.42;74.24
53647;BME280;39550;52.230;5.194;2023-03-01T08:09:31;102940.09;;;2.43;73.99
53647;BME280;39550;52.230;5.194;2023-03-01T08:11:57;102939.19;;;2.42;74.22
53647;BME280;39550;52.230;5.194;2023-03-01T08:14:24;102939.88;;;2.40;74.34
53647;BME280;39550;52.230;5.194;2023-03-01T08:16:50;102941.84;;;2.44;74.56
53647;BME280;39550;52.230;5.194;2023-03-01T08:19:15;102935.88;;;2.43;74.21
53647;BME280;39550;52.230;5.194;2023-03-01T08:21:40;102941.84;;;2.44;73.77
53647;BME280;39550;52.230;5.194;2023-03-01T08:24:07;102950.28;;;2.43;74.40
53647;BME280;39550;52.230;5.194;2023-03-01T08:26:33;102941.84;;;2.44;74.19
53647;BME280;39550;52.230;5.194;2023-03-01T08:28:59;102940.09;;;2.43;74.03
53647;BME280;39550;52.230;5.194;2023-03-01T08:33:58;102938.53;;;2.45;74.30
53647;BME280;39550;52.230;5.194;2023-03-01T08:36:30;102936.00;;;2.45;74.28
53647;BME280;39550;52.230;5.194;2023-03-01T08:38:56;102935.22;;;2.46;74.53
53647;BME280;39550;52.230;5.194;2023-03-01T08:41:21;102921.50;;;2.44;74.15
53647;BME280;39550;52.230;5.194;2023-03-01T08:43:47;102929.38;;;2.47;74.25
53647;BME280;39550;52.230;5.194;2023-03-01T08:46:13;102930.16;;;2.46;74.33
53647;BME280;39550;52.230;5.194;2023-03-01T08:48:39;102929.38;;;2.47;74.44
53647;BME280;39550;52.230;5.194;2023-03-01T08:53:33;102918.41;;;2.48;74.40
53647;BME280;39550;52.230;5.194;2023-03-01T08:56:02;102921.84;;;2.48;74.51
53647;BME280;39550;52.230;5.194;2023-03-01T08:58:29;102920.19;;;2.49;74.14
53647;BME280;39550;52.230;5.194;2023-03-01T09:00:54;102918.41;;;2.48;74.65
53647;BME280;39550;52.230;5.194;2023-03-01T09:03:22;102920.19;;;2.49;74.55
53647;BME280;39550;52.230;5.194;2023-03-01T09:05:47;102915.09;;;2.49;74.24
53647;BME280;39550;52.230;5.194;2023-03-01T09:08:14;102915.09;;;2.49;74.50
53647;BME280;39550;52.230;5.194;2023-03-01T09:10:39;102912.44;;;2.47;74.66
53647;BME280;39550;52.230;5.194;2023-03-01T09:13:05;102910.00;;;2.49;74.77
53647;BME280;39550;52.230;5.194;2023-03-01T09:15:30;102899.81;;;2.49;75.43
53647;BME280;39550;52.230;5.194;2023-03-01T09:17:55;102888.78;;;2.48;74.54
53647;BME280;39550;52.230;5.194;2023-03-01T09:20:21;102890.56;;;2.49;74.73
53647;BME280;39550;52.230;5.194;2023-03-01T09:22:46;102886.34;;;2.50;74.77
53647;BME280;39550;52.230;5.194;2023-03-01T09:25:12;102884.78;;;2.52;74.52
53647;BME280;39550;52.230;5.194;2023-03-01T09:27:37;102880.59;;;2.52;74.60
53647;BME280;39550;52.230;5.194;2023-03-01T09:30:03;102882.38;;;2.53;74.32
53647;BME280;39550;52.230;5.194;2023-03-01T09:32:30;102876.38;;;2.53;74.33
53647;BME280;39550;52.230;5.194;2023-03-01T09:34:55;102874.84;;;2.55;74.16
53647;BME280;39550;52.230;5.194;2023-03-01T09:37:30;102879.94;;;2.55;74.41
53647;BME280;39550;52.230;5.194;2023-03-01T09:39:56;102877.50;;;2.57;74.69
53647;BME280;39550;52.230;5.194;2023-03-01T09:42:21;102876.59;;;2.56;74.13
53647;BME280;39550;52.230;5.194;2023-03-01T09:45:10;102883.34;;;2.55;74.30
53647;BME280;39550;52.230;5.194;2023-03-01T09:47:36;102891.31;;;2.60;74.32
53647;BME280;39550;52.230;5.194;2023-03-01T09:50:09;102887.91;;;2.60;74.47
53647;BME280;39550;52.230;5.194;2023-03-01T09:52:42;102888.78;;;2.60;74.46
53647;BME280;39550;52.230;5.194;2023-03-01T09:55:17;102889.03;;;2.63;74.15
53647;BME280;39550;52.230;5.194;2023-03-01T09:57:49;102886.59;;;2.65;74.32
53647;BME280;39550;52.230;5.194;2023-03-01T10:00:18;102891.03;;;2.67;73.81
53647;BME280;39550;52.230;5.194;2023-03-01T10:02:49;102885.13;;;2.68;74.35
53647;BME280;39550;52.230;5.194;2023-03-01T10:08:36;102869.31;;;2.72;73.62
53647;BME280;39550;52.230;5.194;2023-03-01T10:11:05;102878.84;;;2.75;73.71
53647;BME280;39550;52.230;5.194;2023-03-01T10:17:04;102878.06;;;2.76;73.53
53647;BME280;39550;52.230;5.194;2023-03-01T10:19:44;102874.66;;;2.76;73.87
53647;BME280;39550;52.230;5.194;2023-03-01T10:24:36;102869.13;;;2.81;73.68
53647;BME280;39550;52.230;5.194;2023-03-01T10:27:07;102857.16;;;2.80;74.01
53647;BME280;39550;52.230;5.194;2023-03-01T10:32:22;102854.72;;;2.82;73.39
53647;BME280;39550;52.230;5.194;2023-03-01T10:34:48;102855.72;;;2.84;73.70
53647;BME280;39550;52.230;5.194;2023-03-01T10:37:18;102852.38;;;2.85;73.55
53647;BME280;39550;52.230;5.194;2023-03-01T10:40:06;102855.13;;;2.88;73.16
53647;BME280;39550;52.230;5.194;2023-03-01T10:42:38;102855.13;;;2.88;73.58
53647;BME280;39550;52.230;5.194;2023-03-01T10:47:44;102843.41;;;2.90;73.31
53647;BME280;39550;52.230;5.194;2023-03-01T10:50:21;102842.66;;;2.91;73.23
53647;BME280;39550;52.230;5.194;2023-03-01T10:52:59;102835.22;;;2.94;73.03
53647;BME280;39550;52.230;5.194;2023-03-01T10:58:06;102830.22;;;2.96;73.02
53647;BME280;39550;52.230;5.194;2023-03-01T11:00:32;102826.25;;;2.99;72.82
53647;BME280;39550;52.230;5.194;2023-03-01T11:05:25;102809.28;;;3.00;72.61
53647;BME280;39550;52.230;5.194;2023-03-01T11:07:52;102808.44;;;2.99;72.63
53647;BME280;39550;52.230;5.194;2023-03-01T11:10:30;102798.25;;;2.99;72.85
53647;BME280;39550;52.230;5.194;2023-03-01T11:13:16;102795.13;;;3.03;72.50
53647;BME280;39550;52.230;5.194;2023-03-01T11:15:42;102797.00;;;3.06;72.30
53647;BME280;39550;52.230;5.194;2023-03-01T11:18:19;102797.13;;;3.08;72.44
53647;BME280;39550;52.230;5.194;2023-03-01T11:20:45;102794.56;;;3.08;72.56
53647;BME280;39550;52.230;5.194;2023-03-01T11:23:13;102786.94;;;3.08;71.51
53647;BME280;39550;52.230;5.194;2023-03-01T11:25:44;102783.47;;;3.07;72.00
53647;BME280;39550;52.230;5.194;2023-03-01T11:28:15;102783.56;;;3.09;71.32
53647;BME280;39550;52.230;5.194;2023-03-01T11:33:20;102784.78;;;3.14;72.18
53647;BME280;39550;52.230;5.194;2023-03-01T11:36:01;102782.44;;;3.17;72.13
53647;BME280;39550;52.230;5.194;2023-03-01T11:38:30;102783.34;;;3.17;71.52
53647;BME280;39550;52.230;5.194;2023-03-01T11:41:17;102780.91;;;3.19;71.61
53647;BME280;39550;52.230;5.194;2023-03-01T11:44:14;102774.03;;;3.18;71.11
53647;BME280;39550;52.230;5.194;2023-03-01T11:49:55;102759.84;;;3.21;71.12
53647;BME280;39550;52.230;5.194;2023-03-01T11:52:51;102756.75;;;3.26;71.20
53647;BME280;39550;52.230;5.194;2023-03-01T11:58:07;102762.34;;;3.33;71.97
53647;BME280;39550;52.230;5.194;2023-03-01T12:09:27;102764.41;;;3.51;71.34
53647;BME280;39550;52.230;5.194;2023-03-01T12:17:40;102749.72;;;3.60;71.16
53647;BME280;39550;52.230;5.194;2023-03-01T12:25:52;102734.06;;;3.81;70.10
53647;BME280;39550;52.230;5.194;2023-03-01T12:31:16;102730.47;;;3.90;68.62
53647;BME280;39550;52.230;5.194;2023-03-01T12:34:07;102729.09;;;3.96;68.71
53647;BME280;39550;52.230;5.194;2023-03-01T12:42:30;102723.91;;;4.07;67.89
53647;BME280;39550;52.230;5.194;2023-03-01T12:45:37;102724.09;;;4.11;67.71
53647;BME280;39550;52.230;5.194;2023-03-01T12:50:51;102711.56;;;4.27;67.55
53647;BME280;39550;52.230;5.194;2023-03-01T12:53:22;102718.44;;;4.28;67.00
53647;BME280;39550;52.230;5.194;2023-03-01T12:55:50;102704.09;;;4.30;66.81
53647;BME280;39550;52.230;5.194;2023-03-01T13:06:58;102702.91;;;4.93;64.08
53647;BME280;39550;52.230;5.194;2023-03-01T13:12:41;102690.34;;;5.11;63.62
53647;BME280;39550;52.230;5.194;2023-03-01T13:18:02;102680.88;;;5.24;63.82
53647;BME280;39550;52.230;5.194;2023-03-01T13:31:11;102653.38;;;4.91;64.01
53647;BME280;39550;52.230;5.194;2023-03-01T13:33:56;102651.28;;;4.99;65.70
53647;BME280;39550;52.230;5.194;2023-03-01T13:36:46;102645.84;;;5.08;65.48
53647;BME280;39550;52.230;5.194;2023-03-01T13:39:28;102637.94;;;5.48;62.48
53647;BME280;39550;52.230;5.194;2023-03-01T13:41:57;102634.22;;;5.88;60.60
53647;BME280;39550;52.230;5.194;2023-03-01T13:49:53;102625.72;;;6.19;61.15
53647;BME280;39550;52.230;5.194;2023-03-01T13:52:40;102617.44;;;6.39;59.45
53647;BME280;39550;52.230;5.194;2023-03-01T13:55:24;102613.44;;;6.44;58.25
53647;BME280;39550;52.230;5.194;2023-03-01T13:57:54;102608.72;;;6.36;58.59
53647;BME280;39550;52.230;5.194;2023-03-01T14:00:26;102602.25;;;6.59;58.69
53647;BME280;39550;52.230;5.194;2023-03-01T14:03:12;102591.59;;;6.35;59.41
53647;BME280;39550;52.230;5.194;2023-03-01T14:05:39;102578.00;;;6.36;60.57
53647;BME280;39550;52.230;5.194;2023-03-01T14:08:18;102594.16;;;6.51;60.21
53647;BME280;39550;52.230;5.194;2023-03-01T14:19:32;102585.97;;;6.25;60.20
53647;BME280;39550;52.230;5.194;2023-03-01T14:22:21;102573.13;;;6.40;59.81
53647;BME280;39550;52.230;5.194;2023-03-01T14:24:52;102573.91;;;6.39;59.29
53647;BME280;39550;52.230;5.194;2023-03-01T14:27:20;102565.44;;;6.40;60.37
53647;BME280;39550;52.230;5.194;2023-03-01T14:29:58;102553.75;;;6.45;59.22
53647;BME280;39550;52.230;5.194;2023-03-01T14:32:26;102543.97;;;6.55;59.76
53647;BME280;39550;52.230;5.194;2023-03-01T14:34:52;102547.84;;;6.30;59.83
53647;BME280;39550;52.230;5.194;2023-03-01T14:37:25;102547.81;;;5.67;62.32
53647;BME280;39550;52.230;5.194;2023-03-01T14:50:22;102552.72;;;5.03;64.79
53647;BME280;39550;52.230;5.194;2023-03-01T14:52:50;102550.16;;;4.88;64.45
53647;BME280;39550;52.230;5.194;2023-03-01T14:55:19;102540.44;;;4.82;66.20
53647;BME280;39550;52.230;5.194;2023-03-01T14:57:49;102542.09;;;4.82;64.59
53647;BME280;39550;52.230;5.194;2023-03-01T15:00:18;102529.94;;;4.77;64.16
53647;BME280;39550;52.230;5.194;2023-03-01T15:02:46;102532.41;;;4.76;64.58
53647;BME280;39550;52.230;5.194;2023-03-01T15:05:14;102534.19;;;4.77;63.94
53647;BME280;39550;52.230;5.194;2023-03-01T15:07:42;102535.88;;;4.76;63.52
53647;BME280;39550;52.230;5.194;2023-03-01T15:10:30;102536.38;;;4.71;63.82
53647;BME280;39550;52.230;5.194;2023-03-01T15:12:56;102537.25;;;4.71;64.83
53647;BME280;39550;52.230;5.194;2023-03-01T15:17:59;102531.06;;;4.68;63.98
53647;BME280;39550;52.230;5.194;2023-03-01T15:20:27;102523.31;;;4.66;64.77
53647;BME280;39550;52.230;5.194;2023-03-01T15:22:55;102526.66;;;4.65;65.33
53647;BME280;39550;52.230;5.194;2023-03-01T15:25:24;102529.84;;;4.61;65.35
53647;BME280;39550;52.230;5.194;2023-03-01T15:27:52;102524.94;;;4.64;64.98